Terminal Aerodrome Forecast
Issued by NWS

Home | Current Version | Previous Version | Text Only | Print | Product List | Glossary On
Versions: 1 2 3 4 5 6 7 8 9 10 11 12 13 14 15 16 17 18 19 20 21 22 23 24
379
FTUS43 KMPX 220520
TAFRWF
TAF
KRWF 220520Z 2206/2306 VRB03KT 1/4SM FG VV003
     FM221400 31006KT 2SM BR OVC004
     FM221700 31008KT 5SM BR OVC008
     FM221900 30007KT 6SM BR OVC012
     FM230200 29007KT 5SM BR OVC008=

USA.gov is the U.S. government's official web portal to all federal, state and local government web resources and services.